Time;durP1;ratioP1;P1;durP2;ratioP2;P2;SDS_P1;SDS_P2;PMS_P1;PMS_P2;Temp;Humidity;BMP_temperature;BMP_pressure;BME280_temperature;BME280_humidity;BME280_pressure;Samples;Min_cycle;Max_cycle;Signal;HPM_P1;HPM_P2
2023/06/13 00:00:05;;;;;;;2.20;1.40;;;;;;;13.26;49.56;100479.23;131075;1254;107576;-80
2023/06/13 00:03:13;;;;;;;1.90;1.50;;;;;;;13.18;49.70;100473.80;131310;1251;107377;-80
2023/06/13 00:06:18;;;;;;;1.60;1.40;;;;;;;13.16;49.86;100469.56;131194;1253;107209;-80
2023/06/13 00:09:25;;;;;;;1.50;1.30;;;;;;;13.16;50.00;100468.49;131145;1254;108010;-80
2023/06/13 00:12:32;;;;;;;1.60;1.20;;;;;;;13.12;50.16;100460.55;131172;1251;107290;-80
2023/06/13 00:15:38;;;;;;;2.30;1.50;;;;;;;13.10;50.34;100459.28;131215;1254;107506;-81
2023/06/13 00:18:45;;;;;;;1.70;1.60;;;;;;;13.09;50.38;100448.83;131126;1253;107424;-80
2023/06/13 00:21:50;;;;;;;2.20;1.60;;;;;;;13.08;50.48;100447.69;131140;1266;107357;-80
2023/06/13 00:24:56;;;;;;;2.40;1.60;;;;;;;13.08;50.67;100443.63;131267;1254;107559;-80
2023/06/13 00:28:02;;;;;;;2.10;1.60;;;;;;;13.07;50.77;100443.56;131374;1254;107452;-79
2023/06/13 00:31:07;;;;;;;3.50;2.10;;;;;;;13.05;50.91;100438.45;131282;1250;106552;-80
2023/06/13 00:34:13;;;;;;;2.40;1.80;;;;;;;13.04;51.07;100437.39;131493;1250;107241;-80
2023/06/13 00:37:20;;;;;;;1.90;1.60;;;;;;;13.05;51.16;100434.14;131188;1254;106052;-80
2023/06/13 00:40:26;;;;;;;1.70;1.50;;;;;;;13.02;51.30;100435.98;131068;1253;107375;-80
2023/06/13 00:43:32;;;;;;;3.00;1.50;;;;;;;13.00;51.36;100434.72;131094;1263;107518;-81
2023/06/13 00:46:41;;;;;;;3.10;1.60;;;;;;;12.97;51.63;100430.48;131142;1253;107894;-80
2023/06/13 00:49:47;;;;;;;3.50;2.00;;;;;;;12.98;51.64;100426.82;131177;1251;107514;-80
2023/06/13 00:52:54;;;;;;;1.90;1.60;;;;;;;12.99;51.81;100427.11;131346;1250;106545;-80
2023/06/13 00:56:01;;;;;;;3.10;2.00;;;;;;;12.96;51.79;100426.13;131590;1253;107372;-80
2023/06/13 00:59:08;;;;;;;2.10;1.80;;;;;;;12.97;51.93;100431.19;131597;1250;107538;-80
2023/06/13 01:02:20;;;;;;;1.80;1.60;;;;;;;12.92;52.26;100427.03;131625;1250;106748;-80
2023/06/13 01:05:31;;;;;;;3.00;1.70;;;;;;;12.86;52.30;100422.70;131950;1251;107613;-80
2023/06/13 01:08:37;;;;;;;3.10;1.80;;;;;;;12.79;52.46;100426.00;131884;1254;107504;-80
2023/06/13 01:11:55;;;;;;;2.50;1.60;;;;;;;12.79;52.56;100422.41;132230;1250;107373;-80
2023/06/13 01:15:05;;;;;;;2.40;1.80;;;;;;;12.80;52.64;100419.10;132216;1253;107471;-81
2023/06/13 01:18:15;;;;;;;4.60;2.10;;;;;;;12.81;52.48;100414.74;132243;1254;106534;-80
2023/06/13 01:21:24;;;;;;;2.40;2.00;;;;;;;12.81;52.52;100416.56;131906;1251;108658;-80
2023/06/13 01:24:42;;;;;;;3.30;2.00;;;;;;;12.79;52.57;100417.09;132075;1253;107442;-79
2023/06/13 01:27:50;;;;;;;3.00;1.90;;;;;;;12.76;52.46;100420.57;131757;1250;108687;-80
2023/06/13 01:30:57;;;;;;;2.60;1.90;;;;;;;12.75;52.72;100418.16;131883;1254;107716;-80
2023/06/13 01:34:03;;;;;;;2.60;2.00;;;;;;;12.74;52.81;100417.20;131445;1250;106350;-82
2023/06/13 01:37:10;;;;;;;2.40;1.90;;;;;;;12.73;52.90;100413.72;131455;1257;107401;-80
2023/06/13 01:40:17;;;;;;;4.10;1.90;;;;;;;12.71;53.13;100409.67;131498;1256;107709;-80
2023/06/13 01:43:23;;;;;;;4.40;1.90;;;;;;;12.65;53.25;100407.67;131458;1250;106779;-80
2023/06/13 01:46:31;;;;;;;1.80;1.50;;;;;;;12.62;53.11;100410.98;131257;1256;107493;-80
2023/06/13 01:49:49;;;;;;;2.30;1.70;;;;;;;12.62;53.19;100410.11;131906;1250;107238;-81
2023/06/13 01:53:03;;;;;;;2.60;1.80;;;;;;;12.63;53.13;100410.62;131614;1266;107525;-80
2023/06/13 01:56:14;;;;;;;2.40;2.00;;;;;;;12.63;53.44;100411.59;131645;1250;107353;-80
2023/06/13 01:59:25;;;;;;;2.90;2.00;;;;;;;12.60;53.75;100415.19;131617;1253;107488;-80
2023/06/13 02:02:31;;;;;;;2.50;2.00;;;;;;;12.56;53.55;100421.77;131162;1256;107560;-81
2023/06/13 02:05:36;;;;;;;2.50;2.10;;;;;;;12.55;53.55;100415.14;131026;1253;378278;-80
2023/06/13 02:08:43;;;;;;;2.10;1.70;;;;;;;12.55;53.66;100415.45;131519;1253;107255;-80
2023/06/13 02:11:51;;;;;;;2.90;2.10;;;;;;;12.57;53.77;100411.73;131390;1253;107382;-80
2023/06/13 02:14:57;;;;;;;4.20;2.20;;;;;;;12.56;53.60;100411.56;131266;1251;107484;-80
2023/06/13 02:18:06;;;;;;;3.50;2.10;;;;;;;12.55;53.83;100414.17;131999;1253;107741;-80
2023/06/13 02:21:12;;;;;;;3.40;2.00;;;;;;;12.53;53.91;100415.85;131909;1253;107326;-80
2023/06/13 02:24:18;;;;;;;3.30;2.10;;;;;;;12.52;53.90;100417.75;132115;1249;107327;-80
2023/06/13 02:27:25;;;;;;;2.90;2.10;;;;;;;12.52;54.15;100423.98;131788;1251;107451;-81
2023/06/13 02:30:31;;;;;;;3.40;2.00;;;;;;;12.50;54.10;100424.42;131918;1251;107358;-79
2023/06/13 02:33:40;;;;;;;4.00;2.30;;;;;;;12.46;54.26;100427.33;131439;1254;107510;-74
2023/06/13 02:36:45;;;;;;;5.40;2.10;;;;;;;12.42;54.37;100429.57;131078;1250;107509;-73
2023/06/13 02:39:50;;;;;;;4.40;2.30;;;;;;;12.42;54.56;100429.74;131158;1253;107492;-76
2023/06/13 02:42:56;;;;;;;3.10;2.20;;;;;;;12.40;54.79;100431.20;131409;1253;107544;-74
2023/06/13 02:46:02;;;;;;;2.70;2.40;;;;;;;12.37;54.85;100433.64;131216;1253;106387;-74
2023/06/13 02:49:08;;;;;;;3.90;2.20;;;;;;;12.33;54.86;100434.85;131331;1253;107463;-75
2023/06/13 02:52:13;;;;;;;2.90;2.00;;;;;;;12.30;54.85;100437.02;131065;1251;107521;-74
2023/06/13 02:55:20;;;;;;;3.20;2.40;;;;;;;12.28;55.26;100431.02;131131;1253;106686;-75
2023/06/13 02:58:26;;;;;;;3.20;2.10;;;;;;;12.24;55.41;100426.02;131147;1251;107515;-75
2023/06/13 03:01:31;;;;;;;3.10;2.30;;;;;;;12.22;55.21;100425.06;131061;1253;106560;-77
2023/06/13 03:04:40;;;;;;;3.00;2.20;;;;;;;12.18;55.64;100423.48;131166;1253;107462;-76
2023/06/13 03:07:47;;;;;;;3.40;2.20;;;;;;;12.15;55.70;100424.07;131095;1253;107456;-76
2023/06/13 03:10:56;;;;;;;2.60;2.20;;;;;;;12.15;55.75;100420.33;131123;1253;107492;-75
2023/06/13 03:14:02;;;;;;;2.80;2.10;;;;;;;12.13;55.82;100422.65;130956;1253;107515;-76
2023/06/13 03:17:09;;;;;;;2.70;2.00;;;;;;;12.11;55.75;100423.61;131091;1251;107512;-75
2023/06/13 03:20:16;;;;;;;2.50;2.00;;;;;;;12.12;55.90;100419.04;131047;1251;107248;-76
2023/06/13 03:23:22;;;;;;;2.20;1.90;;;;;;;12.13;55.98;100419.02;131247;1253;107441;-75
2023/06/13 03:26:38;;;;;;;2.80;2.00;;;;;;;12.11;56.04;100421.11;131355;1253;106441;-76
2023/06/13 03:29:45;;;;;;;2.70;2.20;;;;;;;12.12;56.10;100423.04;131348;1253;107457;-76
2023/06/13 03:32:54;;;;;;;2.50;2.00;;;;;;;12.08;56.19;100419.35;131114;1254;107535;-75
2023/06/13 03:36:02;;;;;;;2.40;2.00;;;;;;;12.03;56.60;100423.73;131137;1251;107728;-76
2023/06/13 03:39:08;;;;;;;3.10;2.20;;;;;;;11.99;56.48;100420.63;131182;1251;107487;-75
2023/06/13 03:42:14;;;;;;;2.60;2.00;;;;;;;11.96;56.51;100420.89;131112;1251;107504;-75
2023/06/13 03:45:19;;;;;;;2.70;2.00;;;;;;;11.94;56.65;100421.65;131118;1253;107070;-75
2023/06/13 03:48:25;;;;;;;2.30;2.00;;;;;;;11.92;56.77;100417.93;131161;1254;105552;-75
2023/06/13 03:51:31;;;;;;;3.20;2.00;;;;;;;11.94;56.77;100413.81;131154;1254;107506;-75
2023/06/13 03:54:36;;;;;;;2.80;1.80;;;;;;;11.97;56.90;100410.83;131053;1255;107496;-75
2023/06/13 03:57:42;;;;;;;2.70;2.10;;;;;;;11.99;56.86;100407.58;131377;1253;106417;-75
2023/06/13 04:00:48;;;;;;;2.30;2.00;;;;;;;12.01;57.15;100410.77;131007;1256;107443;-75
2023/06/13 04:03:53;;;;;;;2.60;2.20;;;;;;;12.06;57.08;100410.20;131160;1256;106487;-76
2023/06/13 04:07:04;;;;;;;2.10;1.90;;;;;;;12.12;57.03;100413.73;131428;1253;107401;-75
2023/06/13 04:10:10;;;;;;;2.60;2.00;;;;;;;12.20;57.28;100417.75;131321;1254;107546;-75
2023/06/13 04:13:16;;;;;;;2.60;2.10;;;;;;;12.30;57.18;100414.73;131284;1253;107491;-75
2023/06/13 04:16:22;;;;;;;3.10;2.00;;;;;;;12.41;57.16;100416.67;131390;1253;107395;-75
2023/06/13 04:19:29;;;;;;;3.20;2.20;;;;;;;12.48;57.28;100411.95;131210;1253;107524;-76
2023/06/13 04:22:35;;;;;;;4.70;2.80;;;;;;;12.51;57.60;100412.89;131174;1251;107141;-77
2023/06/13 04:25:41;;;;;;;2.60;2.30;;;;;;;12.52;57.41;100412.20;130965;1256;107389;-75
2023/06/13 04:28:47;;;;;;;3.30;2.40;;;;;;;12.57;57.59;100414.14;130957;1256;107617;-76
2023/06/13 04:31:53;;;;;;;3.80;2.40;;;;;;;12.61;57.37;100411.52;131085;1253;107497;-75
2023/06/13 04:35:00;;;;;;;2.70;2.10;;;;;;;12.61;57.94;100408.77;131143;1253;108725;-75
2023/06/13 04:38:08;;;;;;;3.20;2.30;;;;;;;12.63;57.75;100408.98;131164;1253;106750;-76
2023/06/13 04:41:14;;;;;;;3.40;2.30;;;;;;;12.65;57.83;100411.56;131112;1251;107489;-75
2023/06/13 04:44:20;;;;;;;3.10;2.40;;;;;;;12.68;57.92;100413.24;131063;1264;107638;-75
2023/06/13 04:47:27;;;;;;;3.50;2.60;;;;;;;12.70;57.89;100409.74;131115;1253;108571;-75
2023/06/13 04:50:33;;;;;;;3.60;2.40;;;;;;;12.76;57.99;100407.77;131362;1253;107530;-75
2023/06/13 04:53:39;;;;;;;2.60;2.30;;;;;;;12.81;58.17;100411.17;131386;1250;107234;-76
2023/06/13 04:56:44;;;;;;;2.90;2.50;;;;;;;12.84;58.34;100413.69;132864;1249;109321;-76
2023/06/13 04:59:50;;;;;;;2.90;2.20;;;;;;;12.85;58.04;100408.03;131136;1252;107469;-76
2023/06/13 05:02:57;;;;;;;3.20;2.40;;;;;;;12.84;58.19;100411.58;131682;1253;107420;-76
2023/06/13 05:06:02;;;;;;;3.80;2.30;;;;;;;12.82;58.43;100413.88;131108;1253;107527;-75
2023/06/13 05:09:08;;;;;;;3.10;2.50;;;;;;;12.78;58.34;100417.69;131074;1253;106540;-76
2023/06/13 05:12:14;;;;;;;4.90;3.70;;;;;;;12.77;58.29;100419.00;131096;1253;107678;-75
2023/06/13 05:15:21;;;;;;;3.90;2.80;;;;;;;12.80;58.41;100417.36;131129;1254;107468;-75
2023/06/13 05:18:29;;;;;;;4.90;3.40;;;;;;;12.79;58.62;100418.66;131285;1253;107225;-75
2023/06/13 05:21:36;;;;;;;5.00;3.60;;;;;;;12.75;58.83;100418.86;131378;1249;107485;-75
2023/06/13 05:24:43;;;;;;;3.90;3.10;;;;;;;12.77;59.17;100418.33;131411;1252;107409;-75
2023/06/13 05:27:49;;;;;;;5.90;3.70;;;;;;;12.76;58.99;100419.73;131129;1253;106689;-75
2023/06/13 05:30:54;;;;;;;5.60;4.20;;;;;;;12.83;58.88;100419.68;131175;1253;107616;-74
2023/06/13 05:34:01;;;;;;;6.20;3.90;;;;;;;12.96;58.93;100413.65;131274;1253;107439;-75
2023/06/13 05:37:10;;;;;;;4.20;3.40;;;;;;;13.05;59.54;100411.95;131156;1253;105613;-75
2023/06/13 05:40:16;;;;;;;4.40;3.70;;;;;;;13.14;59.80;100408.19;131058;1253;107226;-74
2023/06/13 05:43:21;;;;;;;4.90;3.60;;;;;;;13.11;60.18;100408.64;131071;1252;106442;-74
2023/06/13 05:46:27;;;;;;;4.60;3.40;;;;;;;13.10;60.10;100405.69;131132;1251;107247;-74
2023/06/13 05:49:32;;;;;;;5.40;3.80;;;;;;;13.22;59.86;100403.00;131052;1253;107602;-75
2023/06/13 05:52:38;;;;;;;4.30;3.80;;;;;;;13.39;59.93;100401.48;131077;1254;107536;-75
2023/06/13 05:55:44;;;;;;;5.30;3.70;;;;;;;13.54;60.21;100406.17;131147;1253;107489;-74
2023/06/13 05:58:50;;;;;;;5.60;3.50;;;;;;;13.58;60.12;100403.26;131456;1257;106197;-75
2023/06/13 06:01:55;;;;;;;4.30;3.20;;;;;;;13.62;60.22;100402.63;131346;1249;107566;-74
2023/06/13 06:05:03;;;;;;;4.80;3.70;;;;;;;13.66;60.61;100403.56;131120;1253;106692;-76
2023/06/13 06:08:09;;;;;;;6.90;4.00;;;;;;;13.68;60.67;100402.57;131122;1253;107483;-75
2023/06/13 06:11:14;;;;;;;5.10;3.90;;;;;;;13.74;60.85;100402.96;131254;1253;107441;-74
2023/06/13 06:14:20;;;;;;;7.80;5.40;;;;;;;13.81;60.78;100401.73;131347;1250;107344;-74
2023/06/13 06:17:26;;;;;;;8.20;5.40;;;;;;;13.85;60.57;100399.90;131426;1253;107491;-74
2023/06/13 06:20:31;;;;;;;5.80;4.80;;;;;;;13.91;60.92;100397.78;131392;1253;107487;-74
2023/06/13 06:23:39;;;;;;;5.70;4.40;;;;;;;13.91;61.00;100401.46;131304;1254;107529;-75
2023/06/13 06:26:45;;;;;;;5.70;4.70;;;;;;;13.90;61.02;100403.03;131363;1253;107533;-75
2023/06/13 06:29:51;;;;;;;6.00;5.00;;;;;;;13.87;61.10;100406.55;131306;1253;106690;-74
2023/06/13 06:32:56;;;;;;;7.70;6.00;;;;;;;13.79;61.17;100403.25;131312;1253;107376;-74
2023/06/13 06:36:02;;;;;;;8.00;5.30;;;;;;;13.78;61.50;100405.34;131335;1253;107433;-74
2023/06/13 06:39:07;;;;;;;6.40;4.60;;;;;;;13.79;61.42;100406.95;131310;1256;107506;-74
2023/06/13 06:42:13;;;;;;;6.90;5.30;;;;;;;13.82;61.68;100407.94;131286;1252;107475;-75
2023/06/13 06:45:20;;;;;;;6.20;4.70;;;;;;;13.77;61.66;100405.57;131184;1254;106390;-74
2023/06/13 06:48:26;;;;;;;6.10;4.90;;;;;;;13.79;61.70;100408.55;131165;1255;107955;-74
2023/06/13 06:51:31;;;;;;;6.00;4.90;;;;;;;13.73;61.88;100408.86;131193;1253;107261;-75
2023/06/13 06:54:37;;;;;;;6.50;4.90;;;;;;;13.73;62.05;100411.34;131056;1254;107539;-74
2023/06/13 06:57:43;;;;;;;5.60;5.00;;;;;;;13.70;62.69;100413.64;131026;1251;108223;-75
2023/06/13 07:00:48;;;;;;;6.80;4.70;;;;;;;13.65;62.56;100416.88;131371;1253;107223;-74
2023/06/13 07:03:54;;;;;;;5.80;4.40;;;;;;;13.67;62.80;100413.64;131315;1251;106673;-74
2023/06/13 07:07:00;;;;;;;5.80;4.50;;;;;;;13.65;62.93;100416.59;131314;1254;107287;-74
2023/06/13 07:10:08;;;;;;;6.50;5.10;;;;;;;13.65;63.17;100409.00;131150;1253;107537;-74
2023/06/13 07:13:13;;;;;;;7.80;5.70;;;;;;;13.75;63.22;100402.63;131106;1249;107520;-74
2023/06/13 07:16:19;;;;;;;5.60;4.60;;;;;;;13.93;63.00;100398.06;131049;1253;107437;-75
2023/06/13 07:19:25;;;;;;;5.40;4.90;;;;;;;14.13;63.16;100394.55;131419;1253;107350;-75
2023/06/13 07:22:30;;;;;;;5.60;4.70;;;;;;;14.31;62.64;100391.30;131309;1253;107344;-77
2023/06/13 07:25:36;;;;;;;5.70;5.00;;;;;;;14.48;62.66;100390.25;131135;1254;107306;-75
2023/06/13 07:28:41;;;;;;;7.30;4.40;;;;;;;14.67;62.82;100389.21;131150;1251;107196;-74
2023/06/13 07:31:47;;;;;;;5.60;5.10;;;;;;;14.79;62.83;100390.39;131256;1253;107476;-75
2023/06/13 07:34:53;;;;;;;6.30;4.80;;;;;;;14.86;62.62;100389.30;131234;1253;107562;-75
2023/06/13 07:37:58;;;;;;;5.50;4.60;;;;;;;15.01;62.76;100380.97;131088;1253;107891;-75
2023/06/13 07:41:04;;;;;;;4.80;4.30;;;;;;;15.11;62.52;100379.41;131132;1253;107635;-75
2023/06/13 07:44:10;;;;;;;5.90;4.50;;;;;;;15.15;62.48;100380.63;131184;1253;105874;-74
2023/06/13 07:47:16;;;;;;;4.90;4.10;;;;;;;15.15;61.87;100382.54;131307;1253;107382;-77
2023/06/13 07:50:23;;;;;;;4.00;3.60;;;;;;;15.10;61.96;100381.71;131207;1253;107527;-75
2023/06/13 07:53:28;;;;;;;4.20;3.80;;;;;;;15.01;62.16;100380.67;131174;1263;107866;-74
2023/06/13 07:56:34;;;;;;;3.80;3.40;;;;;;;14.92;62.53;100381.47;131162;1251;107386;-75
2023/06/13 07:59:40;;;;;;;3.80;3.50;;;;;;;14.91;62.36;100380.38;131116;1251;107277;-75
2023/06/13 08:02:46;;;;;;;4.50;3.60;;;;;;;14.94;62.82;100375.88;131086;1253;107540;-74
2023/06/13 08:05:52;;;;;;;4.40;3.80;;;;;;;14.95;62.81;100377.38;131128;1253;107474;-75
2023/06/13 08:08:57;;;;;;;4.30;3.40;;;;;;;14.88;62.85;100375.67;131137;1253;107239;-75
2023/06/13 08:12:03;;;;;;;4.60;3.60;;;;;;;14.88;63.31;100372.92;131155;1253;107481;-74
2023/06/13 08:15:10;;;;;;;3.40;3.10;;;;;;;14.80;63.48;100373.45;131250;1253;107496;-74
2023/06/13 08:18:15;;;;;;;4.00;3.50;;;;;;;14.71;63.22;100371.93;131127;1251;107508;-74
2023/06/13 08:21:21;;;;;;;2.90;2.60;;;;;;;14.81;63.38;100370.05;131111;1253;107501;-74
2023/06/13 08:24:27;;;;;;;3.90;2.70;;;;;;;14.96;63.75;100366.73;131052;1253;107635;-75
2023/06/13 08:27:32;;;;;;;3.70;2.80;;;;;;;15.00;63.51;100361.09;131343;1253;107485;-74
2023/06/13 08:30:38;;;;;;;2.10;1.90;;;;;;;15.17;63.24;100358.67;131144;1253;105713;-75
2023/06/13 08:33:44;;;;;;;2.90;2.60;;;;;;;15.46;63.02;100356.41;131166;1254;107524;-75
2023/06/13 08:36:49;;;;;;;3.10;2.80;;;;;;;15.48;62.91;100360.83;131065;1253;107574;-74
2023/06/13 08:39:55;;;;;;;2.50;2.30;;;;;;;15.45;63.06;100364.47;131081;1254;107527;-75
2023/06/13 08:43:01;;;;;;;2.80;2.50;;;;;;;15.46;63.25;100361.68;131101;1253;107526;-74
2023/06/13 08:46:07;;;;;;;3.00;2.70;;;;;;;15.32;63.48;100363.18;131033;1251;107625;-74
2023/06/13 08:49:13;;;;;;;2.50;2.30;;;;;;;15.21;63.37;100366.34;131293;1255;106157;-75
2023/06/13 08:52:20;;;;;;;2.60;2.40;;;;;;;15.04;63.73;100367.95;131076;1253;107463;-74
2023/06/13 08:55:28;;;;;;;2.40;2.20;;;;;;;15.04;63.65;100368.95;131113;1253;107354;-74
2023/06/13 08:58:39;;;;;;;2.40;2.20;;;;;;;15.01;63.53;100367.60;131065;1253;107404;-75
2023/06/13 09:01:46;;;;;;;2.30;2.10;;;;;;;15.01;63.51;100372.81;131255;1253;107366;-75
2023/06/13 09:04:52;;;;;;;2.40;2.20;;;;;;;14.95;63.73;100371.55;131451;1250;107540;-75
2023/06/13 09:07:59;;;;;;;2.60;2.30;;;;;;;14.92;63.92;100374.52;131127;1253;107503;-76
2023/06/13 09:11:05;;;;;;;2.30;2.10;;;;;;;14.98;63.93;100371.86;131126;1257;107473;-75
2023/06/13 09:14:12;;;;;;;2.60;2.20;;;;;;;15.02;63.71;100375.66;131053;1250;107611;-74
2023/06/13 09:17:19;;;;;;;2.50;2.10;;;;;;;15.09;63.74;100373.83;131073;1253;107235;-75
2023/06/13 09:20:27;;;;;;;2.30;2.00;;;;;;;15.11;63.57;100375.98;131239;1254;107209;-75
2023/06/13 09:23:34;;;;;;;2.50;2.30;;;;;;;15.05;63.72;100377.02;131316;1250;107381;-75
2023/06/13 09:26:41;;;;;;;2.40;2.20;;;;;;;15.09;63.77;100377.73;131131;1261;108443;-76
2023/06/13 09:29:49;;;;;;;2.30;2.10;;;;;;;15.13;63.97;100378.13;131296;1257;106636;-75
2023/06/13 09:32:54;;;;;;;2.40;2.20;;;;;;;15.07;64.13;100375.48;131125;1253;108146;-75
2023/06/13 09:36:00;;;;;;;2.40;2.10;;;;;;;14.89;64.97;100376.27;131166;1253;106850;-75
2023/06/13 09:39:07;;;;;;;1.90;1.70;;;;;;;14.75;64.61;100375.27;131112;1253;107745;-74
2023/06/13 09:42:12;;;;;;;2.20;1.90;;;;;;;14.63;64.56;100371.74;131151;1254;107514;-74
2023/06/13 09:45:20;;;;;;;2.10;1.90;;;;;;;14.59;65.23;100368.23;131039;1257;107356;-73
2023/06/13 09:48:26;;;;;;;2.10;1.90;;;;;;;14.62;64.83;100367.91;131147;1255;106656;-76
2023/06/13 09:51:32;;;;;;;2.40;2.20;;;;;;;14.74;64.74;100363.70;131144;1253;107487;-78
2023/06/13 09:54:37;;;;;;;2.20;1.90;;;;;;;14.80;64.65;100364.42;131210;1263;108143;-76
2023/06/13 09:57:43;;;;;;;2.90;2.20;;;;;;;14.86;64.53;100368.21;131345;1253;107392;-76
2023/06/13 10:00:50;;;;;;;2.00;1.60;;;;;;;14.89;64.44;100372.18;131340;1254;107769;-76
2023/06/13 10:03:56;;;;;;;1.80;1.70;;;;;;;14.91;64.61;100368.55;131414;1254;107351;-76
2023/06/13 10:07:03;;;;;;;2.10;1.90;;;;;;;14.92;64.51;100361.76;131497;1253;107528;-76
2023/06/13 10:10:10;;;;;;;1.90;1.70;;;;;;;15.01;64.33;100362.44;131413;1256;107468;-76
2023/06/13 10:13:20;;;;;;;1.90;1.70;;;;;;;15.20;64.67;100360.13;131396;1253;107527;-76
2023/06/13 10:16:27;;;;;;;1.60;1.50;;;;;;;15.54;64.61;100355.38;131323;1255;106920;-76
2023/06/13 10:19:37;;;;;;;1.80;1.70;;;;;;;15.81;64.03;100357.96;131193;1253;107429;-75
2023/06/13 10:22:43;;;;;;;1.80;1.60;;;;;;;16.05;64.03;100355.54;131524;1263;107571;-77
2023/06/13 10:25:53;;;;;;;1.80;1.40;;;;;;;16.27;63.81;100360.05;131358;1253;107142;-77
2023/06/13 10:29:14;;;;;;;1.30;1.20;;;;;;;16.43;63.38;100353.83;131370;1256;107564;-77
2023/06/13 10:32:36;;;;;;;1.70;1.60;;;;;;;16.47;63.24;100354.20;131411;1255;107246;-80
2023/06/13 10:35:56;;;;;;;1.70;1.40;;;;;;;16.32;63.13;100356.13;131714;1253;106418;-80
2023/06/13 10:39:23;;;;;;;1.30;1.20;;;;;;;16.20;63.12;100353.98;131484;1263;107441;-77
2023/06/13 10:42:36;;;;;;;1.70;1.60;;;;;;;16.08;63.01;100355.91;131859;1261;106224;-79
2023/06/13 10:45:44;;;;;;;1.50;1.40;;;;;;;16.01;62.83;100353.36;131888;1251;107255;-78
2023/06/13 10:48:52;;;;;;;2.00;1.70;;;;;;;15.99;62.88;100353.62;131952;1255;107502;-79
2023/06/13 10:51:57;;;;;;;1.60;1.50;;;;;;;15.99;62.82;100351.80;131838;1254;107433;-78
2023/06/13 10:55:03;;;;;;;1.70;1.60;;;;;;;16.05;62.99;100351.98;131733;1253;106392;-79
2023/06/13 10:58:14;;;;;;;1.70;1.60;;;;;;;16.21;63.10;100343.67;131689;1258;107340;-80
2023/06/13 11:01:33;;;;;;;1.80;1.70;;;;;;;16.40;63.13;100339.27;131911;1253;107484;-79
2023/06/13 11:04:45;;;;;;;2.60;1.70;;;;;;;16.57;62.67;100338.71;131953;1253;106863;-79
2023/06/13 11:07:53;;;;;;;2.40;2.20;;;;;;;16.68;62.71;100335.11;131216;1255;107578;-78
2023/06/13 11:10:59;;;;;;;2.70;2.10;;;;;;;16.87;62.55;100328.83;131174;1253;106681;-78
2023/06/13 11:14:07;;;;;;;2.50;2.30;;;;;;;17.12;62.15;100329.51;131503;1257;107273;-78
2023/06/13 11:17:13;;;;;;;2.50;2.20;;;;;;;17.30;61.75;100331.36;131343;1253;106423;-78
2023/06/13 11:20:25;;;;;;;2.40;2.20;;;;;;;17.35;61.59;100334.38;131559;1254;107389;-78
2023/06/13 11:23:54;;;;;;;2.80;2.50;;;;;;;17.30;61.76;100331.15;131372;1253;106708;-78
2023/06/13 11:27:03;;;;;;;3.60;3.30;;;;;;;17.22;61.52;100333.05;131538;1253;107670;-77
2023/06/13 11:30:12;;;;;;;2.60;2.40;;;;;;;17.17;61.53;100333.63;131374;1254;107513;-78
2023/06/13 11:33:18;;;;;;;3.20;2.80;;;;;;;17.30;61.56;100334.70;131432;1253;108544;-78
2023/06/13 11:36:28;;;;;;;2.90;2.70;;;;;;;17.53;61.50;100333.06;131171;1256;106216;-77
2023/06/13 11:39:39;;;;;;;3.30;3.00;;;;;;;17.80;61.37;100335.42;131176;1263;106518;-76
2023/06/13 11:42:46;;;;;;;3.60;2.80;;;;;;;17.99;61.13;100331.81;131206;1263;107494;-77
2023/06/13 11:45:51;;;;;;;4.80;3.10;;;;;;;18.01;60.70;100330.70;131198;1255;107513;-77
2023/06/13 11:48:58;;;;;;;3.80;2.70;;;;;;;17.87;60.57;100333.36;131265;1254;106424;-77
2023/06/13 11:52:15;;;;;;;3.40;3.10;;;;;;;17.72;60.69;100336.05;131517;1254;107686;-77
2023/06/13 11:55:20;;;;;;;3.50;3.20;;;;;;;17.55;60.54;100334.95;131512;1254;106527;-77
2023/06/13 11:58:35;;;;;;;3.70;3.40;;;;;;;17.36;60.49;100332.98;131182;1253;107658;-77
2023/06/13 12:01:40;;;;;;;3.60;3.30;;;;;;;17.17;60.49;100331.52;131175;1252;107292;-77
2023/06/13 12:04:46;;;;;;;3.90;3.60;;;;;;;16.99;60.67;100328.27;131221;1263;105681;-78
2023/06/13 12:07:51;;;;;;;4.60;4.20;;;;;;;16.85;60.91;100330.87;131420;1255;107469;-78
2023/06/13 12:10:58;;;;;;;4.60;4.20;;;;;;;16.69;61.02;100333.09;131371;1251;107529;-78
2023/06/13 12:14:04;;;;;;;5.40;4.90;;;;;;;16.55;61.33;100332.03;131437;1254;107540;-77
2023/06/13 12:17:10;;;;;;;5.80;5.00;;;;;;;16.46;61.40;100332.27;131509;1251;107535;-78
2023/06/13 12:20:16;;;;;;;5.60;5.10;;;;;;;16.37;61.52;100332.49;131370;1253;107505;-78
2023/06/13 12:23:22;;;;;;;5.80;5.10;;;;;;;16.36;61.62;100332.80;131250;1253;108596;-78
2023/06/13 12:26:30;;;;;;;6.40;5.20;;;;;;;16.38;61.56;100334.73;131189;1263;107365;-78
2023/06/13 12:29:39;;;;;;;6.80;6.10;;;;;;;16.35;61.77;100335.98;131215;1257;107258;-78
2023/06/13 12:32:48;;;;;;;7.20;6.50;;;;;;;16.33;61.93;100332.61;131154;1258;107532;-77
2023/06/13 12:35:57;;;;;;;7.00;6.30;;;;;;;16.37;62.00;100329.46;131277;1263;107353;-78
2023/06/13 12:39:05;;;;;;;7.10;6.40;;;;;;;16.39;62.14;100333.80;131205;1258;107323;-77
2023/06/13 12:42:11;;;;;;;6.70;6.10;;;;;;;16.62;62.23;100332.80;131108;1253;107640;-77
2023/06/13 12:45:17;;;;;;;6.70;6.10;;;;;;;16.92;61.82;100323.23;131148;1254;107972;-77
2023/06/13 12:48:23;;;;;;;6.30;5.70;;;;;;;17.20;61.95;100324.39;131176;1253;107246;-77
2023/06/13 12:51:30;;;;;;;5.70;5.20;;;;;;;17.45;61.33;100321.14;131271;1257;105624;-78
2023/06/13 12:54:40;;;;;;;5.80;5.30;;;;;;;17.66;61.26;100317.52;131222;1263;107413;-77
2023/06/13 12:57:45;;;;;;;6.60;5.90;;;;;;;17.82;60.95;100321.98;131055;1254;107469;-78
2023/06/13 13:00:55;;;;;;;6.80;6.10;;;;;;;17.86;60.48;100318.86;131294;1263;106735;-77
2023/06/13 13:04:01;;;;;;;6.40;5.80;;;;;;;17.79;60.59;100318.92;131456;1251;107760;-77
2023/06/13 13:07:08;;;;;;;6.80;5.90;;;;;;;17.79;60.62;100318.92;131341;1256;107494;-77
2023/06/13 13:10:14;;;;;;;6.20;5.60;;;;;;;17.76;60.76;100318.60;131091;1253;107487;-77
2023/06/13 13:13:20;;;;;;;6.40;5.80;;;;;;;17.69;60.76;100315.70;131098;1253;107410;-77
2023/06/13 13:16:25;;;;;;;6.80;6.10;;;;;;;17.60;60.79;100314.83;131113;1262;107367;-78
2023/06/13 13:19:31;;;;;;;6.80;6.10;;;;;;;17.50;60.80;100316.86;131167;1261;106230;-79
2023/06/13 13:22:37;;;;;;;6.90;6.30;;;;;;;17.42;60.89;100312.25;131136;1253;107329;-78
2023/06/13 13:25:43;;;;;;;9.20;7.20;;;;;;;17.36;60.51;100307.27;131264;1261;107531;-77
2023/06/13 13:28:48;;;;;;;6.50;5.90;;;;;;;17.30;60.80;100306.21;131321;1254;107190;-77
2023/06/13 13:31:54;;;;;;;6.30;5.70;;;;;;;17.33;60.81;100305.45;131185;1253;106527;-78
2023/06/13 13:35:01;;;;;;;6.20;5.60;;;;;;;17.36;60.81;100309.38;131135;1261;106256;-77
2023/06/13 13:38:07;;;;;;;6.50;5.90;;;;;;;17.35;60.62;100310.62;131082;1254;106448;-77
2023/06/13 13:41:12;;;;;;;8.90;5.80;;;;;;;17.28;60.56;100312.34;131282;1253;106039;-77
2023/06/13 13:44:18;;;;;;;7.10;6.40;;;;;;;17.20;60.75;100310.04;131163;1251;107255;-77
2023/06/13 13:47:23;;;;;;;7.10;6.40;;;;;;;17.14;60.81;100311.23;131299;1254;106462;-77
2023/06/13 13:50:29;;;;;;;8.60;7.10;;;;;;;17.03;60.66;100315.45;131136;1264;107417;-77
2023/06/13 13:53:34;;;;;;;6.90;6.30;;;;;;;17.02;60.81;100307.40;131145;1253;107576;-78
2023/06/13 13:56:40;;;;;;;7.60;6.90;;;;;;;17.05;60.76;100306.80;131166;1263;107533;-77
2023/06/13 13:59:49;;;;;;;7.70;6.90;;;;;;;17.01;60.87;100307.44;131142;1251;107507;-77
2023/06/13 14:02:55;;;;;;;7.90;7.20;;;;;;;16.96;61.03;100311.70;131201;1253;107397;-77
2023/06/13 14:06:00;;;;;;;7.50;6.80;;;;;;;17.02;60.91;100303.92;130990;1253;216316;-77
2023/06/13 14:09:09;;;;;;;7.50;6.20;;;;;;;17.30;60.91;100291.49;131302;1254;106196;-77